sensor_id;sensor_type;location;lat;lon;timestamp;P1;durP1;ratioP1;P2;durP2;ratioP2
55641;SDS011;41509;53.108;6.100;2023-09-18T00:00:56;17.00;;;12.30;;
55641;SDS011;41509;53.108;6.100;2023-09-18T00:03:22;19.45;;;12.25;;
55641;SDS011;41509;53.108;6.100;2023-09-18T00:05:52;19.30;;;12.48;;
55641;SDS011;41509;53.108;6.100;2023-09-18T00:08:18;20.70;;;12.38;;
55641;SDS011;41509;53.108;6.100;2023-09-18T00:13:20;20.17;;;12.10;;
55641;SDS011;41509;53.108;6.100;2023-09-18T00:15:46;18.80;;;12.43;;
55641;SDS011;41509;53.108;6.100;2023-09-18T00:18:14;16.10;;;11.30;;
55641;SDS011;41509;53.108;6.100;2023-09-18T00:20:44;17.45;;;12.13;;
55641;SDS011;41509;53.108;6.100;2023-09-18T00:23:14;20.60;;;12.38;;
55641;SDS011;41509;53.108;6.100;2023-09-18T00:25:41;20.23;;;12.40;;
55641;SDS011;41509;53.108;6.100;2023-09-18T00:28:07;18.15;;;11.85;;
55641;SDS011;41509;53.108;6.100;2023-09-18T00:30:33;17.77;;;11.98;;
55641;SDS011;41509;53.108;6.100;2023-09-18T00:32:59;18.58;;;12.10;;
55641;SDS011;41509;53.108;6.100;2023-09-18T00:35:25;19.35;;;11.60;;
55641;SDS011;41509;53.108;6.100;2023-09-18T00:37:50;16.48;;;11.40;;
55641;SDS011;41509;53.108;6.100;2023-09-18T00:40:16;16.17;;;11.82;;
55641;SDS011;41509;53.108;6.100;2023-09-18T00:42:42;18.25;;;11.77;;
55641;SDS011;41509;53.108;6.100;2023-09-18T00:45:08;16.88;;;10.82;;
55641;SDS011;41509;53.108;6.100;2023-09-18T00:47:34;17.08;;;11.48;;
55641;SDS011;41509;53.108;6.100;2023-09-18T00:50:01;16.67;;;11.70;;
55641;SDS011;41509;53.108;6.100;2023-09-18T00:52:29;17.02;;;11.55;;
55641;SDS011;41509;53.108;6.100;2023-09-18T00:54:56;14.45;;;10.55;;
55641;SDS011;41509;53.108;6.100;2023-09-18T00:57:22;15.50;;;11.10;;
55641;SDS011;41509;53.108;6.100;2023-09-18T00:59:48;15.90;;;11.00;;
55641;SDS011;41509;53.108;6.100;2023-09-18T01:02:14;17.27;;;11.10;;
55641;SDS011;41509;53.108;6.100;2023-09-18T01:04:40;17.23;;;11.20;;
55641;SDS011;41509;53.108;6.100;2023-09-18T01:07:12;16.90;;;11.10;;
55641;SDS011;41509;53.108;6.100;2023-09-18T01:09:38;15.80;;;10.93;;
55641;SDS011;41509;53.108;6.100;2023-09-18T01:14:57;16.50;;;11.13;;
55641;SDS011;41509;53.108;6.100;2023-09-18T01:17:40;16.02;;;10.95;;
55641;SDS011;41509;53.108;6.100;2023-09-18T01:20:10;18.42;;;10.50;;
55641;SDS011;41509;53.108;6.100;2023-09-18T01:22:37;17.98;;;12.07;;
55641;SDS011;41509;53.108;6.100;2023-09-18T01:25:02;16.40;;;11.38;;
55641;SDS011;41509;53.108;6.100;2023-09-18T01:27:29;14.30;;;9.98;;
55641;SDS011;41509;53.108;6.100;2023-09-18T01:29:55;16.35;;;11.02;;
55641;SDS011;41509;53.108;6.100;2023-09-18T01:32:21;15.27;;;10.48;;
55641;SDS011;41509;53.108;6.100;2023-09-18T01:34:51;14.88;;;10.98;;
55641;SDS011;41509;53.108;6.100;2023-09-18T01:37:20;17.55;;;11.23;;
55641;SDS011;41509;53.108;6.100;2023-09-18T01:39:50;17.70;;;11.93;;
55641;SDS011;41509;53.108;6.100;2023-09-18T01:42:16;17.50;;;11.18;;
55641;SDS011;41509;53.108;6.100;2023-09-18T01:47:10;15.55;;;10.07;;
55641;SDS011;41509;53.108;6.100;2023-09-18T01:49:38;17.08;;;10.63;;
55641;SDS011;41509;53.108;6.100;2023-09-18T01:52:05;16.83;;;11.02;;
55641;SDS011;41509;53.108;6.100;2023-09-18T01:54:32;18.00;;;10.65;;
55641;SDS011;41509;53.108;6.100;2023-09-18T01:56:59;15.68;;;10.52;;
55641;SDS011;41509;53.108;6.100;2023-09-18T01:59:28;16.08;;;11.13;;
55641;SDS011;41509;53.108;6.100;2023-09-18T02:01:53;14.95;;;10.82;;
55641;SDS011;41509;53.108;6.100;2023-09-18T02:04:20;17.80;;;11.40;;
55641;SDS011;41509;53.108;6.100;2023-09-18T02:06:47;18.60;;;12.00;;
55641;SDS011;41509;53.108;6.100;2023-09-18T02:09:14;17.15;;;11.70;;
55641;SDS011;41509;53.108;6.100;2023-09-18T02:11:40;17.67;;;11.40;;
55641;SDS011;41509;53.108;6.100;2023-09-18T02:14:08;17.58;;;11.68;;
55641;SDS011;41509;53.108;6.100;2023-09-18T02:16:35;18.20;;;11.73;;
55641;SDS011;41509;53.108;6.100;2023-09-18T02:19:10;17.25;;;11.32;;
55641;SDS011;41509;53.108;6.100;2023-09-18T02:21:38;16.65;;;11.23;;
55641;SDS011;41509;53.108;6.100;2023-09-18T02:24:03;18.85;;;11.75;;
55641;SDS011;41509;53.108;6.100;2023-09-18T02:26:30;18.10;;;10.60;;
55641;SDS011;41509;53.108;6.100;2023-09-18T02:28:57;15.77;;;10.82;;
55641;SDS011;41509;53.108;6.100;2023-09-18T02:31:24;17.70;;;10.95;;
55641;SDS011;41509;53.108;6.100;2023-09-18T02:33:53;16.85;;;10.55;;
55641;SDS011;41509;53.108;6.100;2023-09-18T02:36:19;15.23;;;10.48;;
55641;SDS011;41509;53.108;6.100;2023-09-18T02:38:44;14.77;;;10.98;;
55641;SDS011;41509;53.108;6.100;2023-09-18T02:41:10;15.35;;;10.35;;
55641;SDS011;41509;53.108;6.100;2023-09-18T02:43:36;17.48;;;9.98;;
55641;SDS011;41509;53.108;6.100;2023-09-18T02:46:04;18.98;;;11.10;;
55641;SDS011;41509;53.108;6.100;2023-09-18T02:48:31;16.48;;;10.70;;
55641;SDS011;41509;53.108;6.100;2023-09-18T02:51:00;15.32;;;10.23;;
55641;SDS011;41509;53.108;6.100;2023-09-18T02:53:27;17.80;;;10.68;;
55641;SDS011;41509;53.108;6.100;2023-09-18T02:55:56;15.93;;;10.38;;
55641;SDS011;41509;53.108;6.100;2023-09-18T02:58:24;19.52;;;10.13;;
55641;SDS011;41509;53.108;6.100;2023-09-18T03:00:54;17.70;;;11.40;;
55641;SDS011;41509;53.108;6.100;2023-09-18T03:03:24;17.50;;;11.30;;
55641;SDS011;41509;53.108;6.100;2023-09-18T03:05:50;15.00;;;10.80;;
55641;SDS011;41509;53.108;6.100;2023-09-18T03:08:16;18.02;;;11.38;;
55641;SDS011;41509;53.108;6.100;2023-09-18T03:10:42;17.25;;;10.98;;
55641;SDS011;41509;53.108;6.100;2023-09-18T03:13:09;18.33;;;12.13;;
55641;SDS011;41509;53.108;6.100;2023-09-18T03:15:37;15.50;;;11.35;;
55641;SDS011;41509;53.108;6.100;2023-09-18T03:18:04;17.45;;;10.55;;
55641;SDS011;41509;53.108;6.100;2023-09-18T03:20:32;16.52;;;11.45;;
55641;SDS011;41509;53.108;6.100;2023-09-18T03:22:58;17.48;;;11.75;;
55641;SDS011;41509;53.108;6.100;2023-09-18T03:25:26;16.13;;;10.57;;
55641;SDS011;41509;53.108;6.100;2023-09-18T03:27:52;15.50;;;11.27;;
55641;SDS011;41509;53.108;6.100;2023-09-18T03:30:19;14.90;;;10.40;;
55641;SDS011;41509;53.108;6.100;2023-09-18T03:32:46;17.60;;;10.90;;
55641;SDS011;41509;53.108;6.100;2023-09-18T03:35:16;18.48;;;11.65;;
55641;SDS011;41509;53.108;6.100;2023-09-18T03:37:44;16.83;;;10.80;;
55641;SDS011;41509;53.108;6.100;2023-09-18T03:40:09;19.33;;;11.95;;
55641;SDS011;41509;53.108;6.100;2023-09-18T03:42:35;16.55;;;11.13;;
55641;SDS011;41509;53.108;6.100;2023-09-18T03:45:01;18.10;;;11.35;;
55641;SDS011;41509;53.108;6.100;2023-09-18T03:47:31;18.52;;;12.02;;
55641;SDS011;41509;53.108;6.100;2023-09-18T03:49:56;18.80;;;11.63;;
55641;SDS011;41509;53.108;6.100;2023-09-18T03:52:27;15.85;;;10.93;;
55641;SDS011;41509;53.108;6.100;2023-09-18T03:54:52;17.90;;;11.98;;
55641;SDS011;41509;53.108;6.100;2023-09-18T03:57:18;19.73;;;11.68;;
55641;SDS011;41509;53.108;6.100;2023-09-18T03:59:46;16.13;;;11.18;;
55641;SDS011;41509;53.108;6.100;2023-09-18T04:02:12;17.90;;;12.07;;
55641;SDS011;41509;53.108;6.100;2023-09-18T04:04:38;18.63;;;11.43;;
55641;SDS011;41509;53.108;6.100;2023-09-18T04:07:07;17.13;;;11.85;;
55641;SDS011;41509;53.108;6.100;2023-09-18T04:09:33;22.00;;;12.30;;
55641;SDS011;41509;53.108;6.100;2023-09-18T04:12:00;18.52;;;11.77;;
55641;SDS011;41509;53.108;6.100;2023-09-18T04:14:26;18.33;;;11.20;;
55641;SDS011;41509;53.108;6.100;2023-09-18T04:16:52;15.63;;;10.95;;
55641;SDS011;41509;53.108;6.100;2023-09-18T04:19:17;17.63;;;11.02;;
55641;SDS011;41509;53.108;6.100;2023-09-18T04:21:43;18.67;;;11.18;;
55641;SDS011;41509;53.108;6.100;2023-09-18T04:24:10;16.42;;;11.45;;
55641;SDS011;41509;53.108;6.100;2023-09-18T04:26:35;17.08;;;11.55;;
55641;SDS011;41509;53.108;6.100;2023-09-18T04:29:03;19.23;;;11.48;;
55641;SDS011;41509;53.108;6.100;2023-09-18T04:31:28;15.88;;;11.23;;
55641;SDS011;41509;53.108;6.100;2023-09-18T04:33:55;18.58;;;11.45;;
55641;SDS011;41509;53.108;6.100;2023-09-18T04:36:21;15.13;;;10.73;;
55641;SDS011;41509;53.108;6.100;2023-09-18T04:38:46;18.70;;;10.80;;
55641;SDS011;41509;53.108;6.100;2023-09-18T04:41:13;16.60;;;10.82;;
55641;SDS011;41509;53.108;6.100;2023-09-18T04:43:40;17.00;;;10.85;;
55641;SDS011;41509;53.108;6.100;2023-09-18T04:46:07;18.88;;;10.60;;
55641;SDS011;41509;53.108;6.100;2023-09-18T04:48:33;14.15;;;9.85;;
55641;SDS011;41509;53.108;6.100;2023-09-18T04:50:59;17.30;;;10.90;;
55641;SDS011;41509;53.108;6.100;2023-09-18T04:53:29;15.35;;;9.90;;
55641;SDS011;41509;53.108;6.100;2023-09-18T04:55:56;15.85;;;10.32;;
55641;SDS011;41509;53.108;6.100;2023-09-18T05:00:54;17.13;;;9.63;;
55641;SDS011;41509;53.108;6.100;2023-09-18T05:03:24;16.17;;;9.73;;
55641;SDS011;41509;53.108;6.100;2023-09-18T05:05:51;17.05;;;10.40;;
55641;SDS011;41509;53.108;6.100;2023-09-18T05:08:20;16.15;;;10.10;;
55641;SDS011;41509;53.108;6.100;2023-09-18T05:10:46;12.15;;;8.38;;
55641;SDS011;41509;53.108;6.100;2023-09-18T05:13:12;14.93;;;9.05;;
55641;SDS011;41509;53.108;6.100;2023-09-18T05:15:38;15.73;;;9.95;;
55641;SDS011;41509;53.108;6.100;2023-09-18T05:18:04;15.55;;;9.48;;
55641;SDS011;41509;53.108;6.100;2023-09-18T05:20:30;13.05;;;8.93;;
55641;SDS011;41509;53.108;6.100;2023-09-18T05:22:57;14.80;;;9.52;;
55641;SDS011;41509;53.108;6.100;2023-09-18T05:25:27;13.63;;;9.52;;
55641;SDS011;41509;53.108;6.100;2023-09-18T05:27:57;12.35;;;9.27;;
55641;SDS011;41509;53.108;6.100;2023-09-18T05:30:28;15.15;;;9.25;;
55641;SDS011;41509;53.108;6.100;2023-09-18T05:32:59;13.73;;;8.52;;
55641;SDS011;41509;53.108;6.100;2023-09-18T05:35:32;14.95;;;9.07;;
55641;SDS011;41509;53.108;6.100;2023-09-18T05:38:02;15.88;;;9.10;;
55641;SDS011;41509;53.108;6.100;2023-09-18T05:40:31;12.02;;;9.25;;
55641;SDS011;41509;53.108;6.100;2023-09-18T05:42:57;12.50;;;8.70;;
55641;SDS011;41509;53.108;6.100;2023-09-18T05:45:23;15.80;;;10.10;;
55641;SDS011;41509;53.108;6.100;2023-09-18T05:47:52;14.55;;;9.55;;
55641;SDS011;41509;53.108;6.100;2023-09-18T05:50:33;16.20;;;8.82;;
55641;SDS011;41509;53.108;6.100;2023-09-18T05:53:05;14.98;;;9.02;;
55641;SDS011;41509;53.108;6.100;2023-09-18T05:55:31;16.50;;;8.93;;
55641;SDS011;41509;53.108;6.100;2023-09-18T05:57:58;15.35;;;9.48;;
55641;SDS011;41509;53.108;6.100;2023-09-18T06:00:24;12.65;;;8.25;;
55641;SDS011;41509;53.108;6.100;2023-09-18T06:02:50;12.50;;;8.85;;
55641;SDS011;41509;53.108;6.100;2023-09-18T06:05:16;14.15;;;8.82;;
55641;SDS011;41509;53.108;6.100;2023-09-18T06:07:43;13.85;;;8.57;;
55641;SDS011;41509;53.108;6.100;2023-09-18T06:10:12;11.57;;;8.38;;
55641;SDS011;41509;53.108;6.100;2023-09-18T06:12:38;13.25;;;8.07;;
55641;SDS011;41509;53.108;6.100;2023-09-18T06:15:05;15.88;;;8.55;;
55641;SDS011;41509;53.108;6.100;2023-09-18T06:17:35;13.25;;;8.07;;
55641;SDS011;41509;53.108;6.100;2023-09-18T06:20:02;15.50;;;7.57;;
55641;SDS011;41509;53.108;6.100;2023-09-18T06:22:29;15.80;;;8.07;;
55641;SDS011;41509;53.108;6.100;2023-09-18T06:24:54;14.35;;;8.27;;
55641;SDS011;41509;53.108;6.100;2023-09-18T06:27:20;18.55;;;8.52;;
55641;SDS011;41509;53.108;6.100;2023-09-18T06:29:46;14.68;;;9.18;;
55641;SDS011;41509;53.108;6.100;2023-09-18T06:32:12;18.20;;;8.82;;
55641;SDS011;41509;53.108;6.100;2023-09-18T06:34:37;17.15;;;8.90;;
55641;SDS011;41509;53.108;6.100;2023-09-18T06:37:08;15.65;;;8.90;;
55641;SDS011;41509;53.108;6.100;2023-09-18T06:39:38;13.55;;;8.85;;
55641;SDS011;41509;53.108;6.100;2023-09-18T06:42:06;16.67;;;10.15;;
55641;SDS011;41509;53.108;6.100;2023-09-18T06:44:31;18.23;;;9.60;;
55641;SDS011;41509;53.108;6.100;2023-09-18T06:46:57;15.77;;;8.80;;
55641;SDS011;41509;53.108;6.100;2023-09-18T06:49:26;14.60;;;9.00;;
55641;SDS011;41509;53.108;6.100;2023-09-18T06:51:55;15.32;;;10.02;;
55641;SDS011;41509;53.108;6.100;2023-09-18T06:54:21;19.80;;;9.48;;
55641;SDS011;41509;53.108;6.100;2023-09-18T06:56:46;14.73;;;8.48;;
55641;SDS011;41509;53.108;6.100;2023-09-18T07:01:38;16.02;;;8.38;;
55641;SDS011;41509;53.108;6.100;2023-09-18T07:04:05;14.00;;;8.07;;
55641;SDS011;41509;53.108;6.100;2023-09-18T07:06:30;13.75;;;7.80;;
55641;SDS011;41509;53.108;6.100;2023-09-18T07:08:56;12.15;;;7.80;;
55641;SDS011;41509;53.108;6.100;2023-09-18T07:11:22;13.95;;;7.78;;
55641;SDS011;41509;53.108;6.100;2023-09-18T07:13:47;14.13;;;7.88;;
55641;SDS011;41509;53.108;6.100;2023-09-18T07:16:13;14.60;;;7.72;;
55641;SDS011;41509;53.108;6.100;2023-09-18T07:18:39;12.73;;;7.40;;
55641;SDS011;41509;53.108;6.100;2023-09-18T07:21:04;13.85;;;8.70;;
55641;SDS011;41509;53.108;6.100;2023-09-18T07:23:30;10.68;;;7.35;;
55641;SDS011;41509;53.108;6.100;2023-09-18T07:25:56;11.82;;;7.38;;
55641;SDS011;41509;53.108;6.100;2023-09-18T07:28:23;11.85;;;6.05;;
55641;SDS011;41509;53.108;6.100;2023-09-18T07:30:49;14.00;;;6.32;;
55641;SDS011;41509;53.108;6.100;2023-09-18T07:33:15;11.45;;;6.20;;
55641;SDS011;41509;53.108;6.100;2023-09-18T07:35:48;11.57;;;5.95;;
55641;SDS011;41509;53.108;6.100;2023-09-18T07:38:17;8.70;;;5.97;;
55641;SDS011;41509;53.108;6.100;2023-09-18T07:40:44;12.40;;;6.72;;
55641;SDS011;41509;53.108;6.100;2023-09-18T07:43:11;11.45;;;6.72;;
55641;SDS011;41509;53.108;6.100;2023-09-18T07:45:40;12.20;;;7.03;;
55641;SDS011;41509;53.108;6.100;2023-09-18T07:48:06;9.10;;;6.18;;
55641;SDS011;41509;53.108;6.100;2023-09-18T07:50:32;12.10;;;6.45;;
55641;SDS011;41509;53.108;6.100;2023-09-18T07:52:59;11.48;;;5.68;;
55641;SDS011;41509;53.108;6.100;2023-09-18T07:55:25;8.60;;;5.55;;
55641;SDS011;41509;53.108;6.100;2023-09-18T07:57:51;8.65;;;5.38;;
55641;SDS011;41509;53.108;6.100;2023-09-18T08:00:17;11.15;;;5.80;;
55641;SDS011;41509;53.108;6.100;2023-09-18T08:02:43;10.02;;;6.63;;
55641;SDS011;41509;53.108;6.100;2023-09-18T08:05:09;11.95;;;6.40;;
55641;SDS011;41509;53.108;6.100;2023-09-18T08:07:35;9.30;;;5.65;;
55641;SDS011;41509;53.108;6.100;2023-09-18T08:10:04;10.65;;;5.22;;
55641;SDS011;41509;53.108;6.100;2023-09-18T08:12:33;15.35;;;6.55;;
55641;SDS011;41509;53.108;6.100;2023-09-18T08:14:59;12.27;;;6.00;;
55641;SDS011;41509;53.108;6.100;2023-09-18T08:17:25;12.68;;;6.28;;
55641;SDS011;41509;53.108;6.100;2023-09-18T08:19:51;9.85;;;5.43;;
55641;SDS011;41509;53.108;6.100;2023-09-18T08:22:18;8.65;;;5.40;;
55641;SDS011;41509;53.108;6.100;2023-09-18T08:24:45;8.75;;;5.50;;
55641;SDS011;41509;53.108;6.100;2023-09-18T08:27:17;12.18;;;5.47;;
55641;SDS011;41509;53.108;6.100;2023-09-18T08:32:09;10.15;;;5.30;;
55641;SDS011;41509;53.108;6.100;2023-09-18T08:34:35;8.82;;;5.18;;
55641;SDS011;41509;53.108;6.100;2023-09-18T08:37:01;7.68;;;5.10;;
55641;SDS011;41509;53.108;6.100;2023-09-18T08:39:27;11.35;;;5.65;;
55641;SDS011;41509;53.108;6.100;2023-09-18T08:41:55;10.45;;;6.03;;
55641;SDS011;41509;53.108;6.100;2023-09-18T08:44:25;12.50;;;6.15;;
55641;SDS011;41509;53.108;6.100;2023-09-18T08:46:52;8.98;;;5.43;;
55641;SDS011;41509;53.108;6.100;2023-09-18T08:49:24;9.52;;;5.90;;
55641;SDS011;41509;53.108;6.100;2023-09-18T08:51:51;10.10;;;5.80;;
55641;SDS011;41509;53.108;6.100;2023-09-18T08:54:20;11.13;;;5.70;;
55641;SDS011;41509;53.108;6.100;2023-09-18T08:56:48;8.60;;;5.35;;
55641;SDS011;41509;53.108;6.100;2023-09-18T08:59:15;10.75;;;6.30;;
55641;SDS011;41509;53.108;6.100;2023-09-18T09:01:41;14.70;;;6.35;;
55641;SDS011;41509;53.108;6.100;2023-09-18T09:04:07;11.02;;;6.00;;
55641;SDS011;41509;53.108;6.100;2023-09-18T09:06:32;8.38;;;5.40;;
55641;SDS011;41509;53.108;6.100;2023-09-18T09:08:58;10.32;;;6.15;;
55641;SDS011;41509;53.108;6.100;2023-09-18T09:11:24;10.18;;;6.47;;
55641;SDS011;41509;53.108;6.100;2023-09-18T09:16:49;9.45;;;5.72;;
55641;SDS011;41509;53.108;6.100;2023-09-18T09:19:15;9.93;;;5.28;;
55641;SDS011;41509;53.108;6.100;2023-09-18T09:21:42;10.05;;;5.35;;
55641;SDS011;41509;53.108;6.100;2023-09-18T09:24:09;10.80;;;5.63;;
55641;SDS011;41509;53.108;6.100;2023-09-18T09:26:43;8.13;;;5.03;;
55641;SDS011;41509;53.108;6.100;2023-09-18T09:29:19;11.10;;;5.43;;
55641;SDS011;41509;53.108;6.100;2023-09-18T09:31:46;9.13;;;5.80;;
55641;SDS011;41509;53.108;6.100;2023-09-18T09:36:55;7.63;;;5.45;;
55641;SDS011;41509;53.108;6.100;2023-09-18T09:39:22;9.27;;;5.80;;
55641;SDS011;41509;53.108;6.100;2023-09-18T09:41:52;9.48;;;5.50;;
55641;SDS011;41509;53.108;6.100;2023-09-18T09:44:18;11.95;;;5.72;;
55641;SDS011;41509;53.108;6.100;2023-09-18T09:46:49;9.68;;;5.15;;
55641;SDS011;41509;53.108;6.100;2023-09-18T09:49:16;9.25;;;5.63;;
55641;SDS011;41509;53.108;6.100;2023-09-18T09:51:44;11.57;;;6.20;;
55641;SDS011;41509;53.108;6.100;2023-09-18T09:54:11;10.63;;;5.72;;
55641;SDS011;41509;53.108;6.100;2023-09-18T09:56:48;8.68;;;6.32;;
55641;SDS011;41509;53.108;6.100;2023-09-18T09:59:16;10.32;;;7.00;;
55641;SDS011;41509;53.108;6.100;2023-09-18T10:01:47;11.88;;;6.53;;
55641;SDS011;41509;53.108;6.100;2023-09-18T10:04:16;12.18;;;6.72;;
55641;SDS011;41509;53.108;6.100;2023-09-18T10:06:44;13.13;;;7.95;;
55641;SDS011;41509;53.108;6.100;2023-09-18T10:09:19;13.00;;;8.82;;
55641;SDS011;41509;53.108;6.100;2023-09-18T10:11:46;14.45;;;7.97;;
55641;SDS011;41509;53.108;6.100;2023-09-18T10:14:16;12.70;;;7.90;;
55641;SDS011;41509;53.108;6.100;2023-09-18T10:16:53;13.25;;;8.07;;
55641;SDS011;41509;53.108;6.100;2023-09-18T10:19:28;9.85;;;7.32;;
55641;SDS011;41509;53.108;6.100;2023-09-18T10:27:42;15.00;;;7.28;;
55641;SDS011;41509;53.108;6.100;2023-09-18T10:30:18;9.52;;;6.72;;
55641;SDS011;41509;53.108;6.100;2023-09-18T10:32:48;12.52;;;7.50;;
55641;SDS011;41509;53.108;6.100;2023-09-18T10:35:14;10.38;;;6.72;;
55641;SDS011;41509;53.108;6.100;2023-09-18T10:37:44;10.52;;;6.03;;
55641;SDS011;41509;53.108;6.100;2023-09-18T10:40:11;10.45;;;5.70;;
55641;SDS011;41509;53.108;6.100;2023-09-18T10:42:38;8.73;;;5.75;;
55641;SDS011;41509;53.108;6.100;2023-09-18T10:45:05;11.00;;;5.63;;
55641;SDS011;41509;53.108;6.100;2023-09-18T10:47:39;7.35;;;5.72;;
55641;SDS011;41509;53.108;6.100;2023-09-18T10:50:08;9.70;;;5.47;;
55641;SDS011;41509;53.108;6.100;2023-09-18T10:52:35;9.70;;;5.15;;
55641;SDS011;41509;53.108;6.100;2023-09-18T10:55:03;8.95;;;5.07;;
55641;SDS011;41509;53.108;6.100;2023-09-18T10:57:33;5.78;;;4.38;;
55641;SDS011;41509;53.108;6.100;2023-09-18T11:00:03;8.68;;;4.50;;
55641;SDS011;41509;53.108;6.100;2023-09-18T11:02:40;7.70;;;4.73;;
55641;SDS011;41509;53.108;6.100;2023-09-18T11:05:06;7.50;;;4.25;;
55641;SDS011;41509;53.108;6.100;2023-09-18T11:07:32;4.88;;;3.80;;
55641;SDS011;41509;53.108;6.100;2023-09-18T11:12:42;4.93;;;3.75;;
55641;SDS011;41509;53.108;6.100;2023-09-18T11:15:09;4.78;;;3.05;;
55641;SDS011;41509;53.108;6.100;2023-09-18T11:18:01;6.20;;;3.45;;
55641;SDS011;41509;53.108;6.100;2023-09-18T11:20:30;4.80;;;3.22;;
55641;SDS011;41509;53.108;6.100;2023-09-18T11:25:37;4.78;;;3.38;;
55641;SDS011;41509;53.108;6.100;2023-09-18T11:28:07;5.07;;;2.90;;
55641;SDS011;41509;53.108;6.100;2023-09-18T11:30:59;4.43;;;3.03;;
55641;SDS011;41509;53.108;6.100;2023-09-18T11:33:41;4.55;;;2.83;;
55641;SDS011;41509;53.108;6.100;2023-09-18T11:36:14;5.50;;;2.38;;
55641;SDS011;41509;53.108;6.100;2023-09-18T11:41:28;4.80;;;2.88;;
55641;SDS011;41509;53.108;6.100;2023-09-18T11:46:49;4.53;;;3.08;;
55641;SDS011;41509;53.108;6.100;2023-09-18T11:49:23;5.85;;;2.78;;
55641;SDS011;41509;53.108;6.100;2023-09-18T11:51:51;4.30;;;2.45;;
55641;SDS011;41509;53.108;6.100;2023-09-18T11:54:18;8.85;;;2.72;;
55641;SDS011;41509;53.108;6.100;2023-09-18T11:59:10;7.05;;;2.58;;
55641;SDS011;41509;53.108;6.100;2023-09-18T12:01:37;4.95;;;2.92;;
55641;SDS011;41509;53.108;6.100;2023-09-18T12:04:05;7.97;;;2.80;;
55641;SDS011;41509;53.108;6.100;2023-09-18T12:06:41;4.85;;;3.00;;
55641;SDS011;41509;53.108;6.100;2023-09-18T12:09:09;5.28;;;2.70;;
55641;SDS011;41509;53.108;6.100;2023-09-18T12:11:38;7.03;;;3.28;;
55641;SDS011;41509;53.108;6.100;2023-09-18T12:14:07;3.25;;;2.67;;
55641;SDS011;41509;53.108;6.100;2023-09-18T12:19:08;3.95;;;2.40;;
55641;SDS011;41509;53.108;6.100;2023-09-18T12:21:42;3.83;;;2.22;;
55641;SDS011;41509;53.108;6.100;2023-09-18T12:24:20;6.20;;;2.85;;
55641;SDS011;41509;53.108;6.100;2023-09-18T12:26:47;5.13;;;2.35;;
55641;SDS011;41509;53.108;6.100;2023-09-18T12:31:40;4.40;;;2.70;;
55641;SDS011;41509;53.108;6.100;2023-09-18T12:34:13;4.32;;;2.47;;
55641;SDS011;41509;53.108;6.100;2023-09-18T12:36:41;3.42;;;2.60;;
55641;SDS011;41509;53.108;6.100;2023-09-18T12:39:14;5.22;;;2.67;;
55641;SDS011;41509;53.108;6.100;2023-09-18T12:41:44;6.55;;;2.28;;
55641;SDS011;41509;53.108;6.100;2023-09-18T12:44:10;4.13;;;2.72;;
55641;SDS011;41509;53.108;6.100;2023-09-18T12:46:37;3.97;;;2.78;;
55641;SDS011;41509;53.108;6.100;2023-09-18T12:49:18;4.90;;;3.00;;
55641;SDS011;41509;53.108;6.100;2023-09-18T12:52:00;3.20;;;2.30;;
55641;SDS011;41509;53.108;6.100;2023-09-18T12:57:07;4.60;;;2.50;;
55641;SDS011;41509;53.108;6.100;2023-09-18T12:59:37;4.30;;;1.92;;
55641;SDS011;41509;53.108;6.100;2023-09-18T13:02:03;3.58;;;1.90;;
55641;SDS011;41509;53.108;6.100;2023-09-18T13:04:31;4.55;;;2.75;;
55641;SDS011;41509;53.108;6.100;2023-09-18T13:07:11;2.92;;;2.20;;
55641;SDS011;41509;53.108;6.100;2023-09-18T13:09:38;3.95;;;2.38;;
55641;SDS011;41509;53.108;6.100;2023-09-18T13:12:07;3.30;;;2.20;;
55641;SDS011;41509;53.108;6.100;2023-09-18T13:17:25;3.50;;;2.17;;
55641;SDS011;41509;53.108;6.100;2023-09-18T13:20:05;5.27;;;2.43;;
55641;SDS011;41509;53.108;6.100;2023-09-18T13:22:35;3.20;;;2.13;;
55641;SDS011;41509;53.108;6.100;2023-09-18T13:27:26;3.42;;;2.40;;
55641;SDS011;41509;53.108;6.100;2023-09-18T13:32:20;4.90;;;2.00;;
55641;SDS011;41509;53.108;6.100;2023-09-18T13:34:49;3.58;;;2.03;;
55641;SDS011;41509;53.108;6.100;2023-09-18T13:39:42;2.28;;;1.70;;
55641;SDS011;41509;53.108;6.100;2023-09-18T13:44:33;3.45;;;1.80;;
55641;SDS011;41509;53.108;6.100;2023-09-18T13:47:01;6.60;;;2.20;;
55641;SDS011;41509;53.108;6.100;2023-09-18T13:49:29;2.53;;;1.63;;
55641;SDS011;41509;53.108;6.100;2023-09-18T13:54:21;3.35;;;2.15;;
55641;SDS011;41509;53.108;6.100;2023-09-18T13:59:13;4.38;;;2.00;;
55641;SDS011;41509;53.108;6.100;2023-09-18T14:04:04;6.22;;;2.38;;
55641;SDS011;41509;53.108;6.100;2023-09-18T14:06:32;3.67;;;1.88;;
55641;SDS011;41509;53.108;6.100;2023-09-18T14:08:57;4.80;;;1.88;;
55641;SDS011;41509;53.108;6.100;2023-09-18T14:13:49;7.28;;;1.85;;
55641;SDS011;41509;53.108;6.100;2023-09-18T14:18:40;5.72;;;2.00;;
55641;SDS011;41509;53.108;6.100;2023-09-18T14:21:10;3.33;;;1.85;;
55641;SDS011;41509;53.108;6.100;2023-09-18T14:23:36;5.13;;;2.40;;
55641;SDS011;41509;53.108;6.100;2023-09-18T14:26:02;3.22;;;1.88;;
55641;SDS011;41509;53.108;6.100;2023-09-18T14:30:53;2.70;;;1.85;;
55641;SDS011;41509;53.108;6.100;2023-09-18T14:35:44;3.58;;;1.70;;
55641;SDS011;41509;53.108;6.100;2023-09-18T14:40:40;5.25;;;2.63;;
55641;SDS011;41509;53.108;6.100;2023-09-18T14:43:07;4.35;;;2.47;;
55641;SDS011;41509;53.108;6.100;2023-09-18T14:45:35;4.28;;;2.40;;
55641;SDS011;41509;53.108;6.100;2023-09-18T14:48:03;5.40;;;2.50;;
55641;SDS011;41509;53.108;6.100;2023-09-18T14:50:32;6.40;;;3.13;;
55641;SDS011;41509;53.108;6.100;2023-09-18T14:52:58;3.33;;;2.65;;
55641;SDS011;41509;53.108;6.100;2023-09-18T14:57:49;6.70;;;3.20;;
55641;SDS011;41509;53.108;6.100;2023-09-18T15:02:41;3.42;;;2.38;;
55641;SDS011;41509;53.108;6.100;2023-09-18T15:07:37;4.40;;;2.20;;
55641;SDS011;41509;53.108;6.100;2023-09-18T15:10:03;5.80;;;2.55;;
55641;SDS011;41509;53.108;6.100;2023-09-18T15:12:30;6.32;;;3.15;;
55641;SDS011;41509;53.108;6.100;2023-09-18T15:14:56;4.75;;;2.63;;
55641;SDS011;41509;53.108;6.100;2023-09-18T15:17:22;4.38;;;2.80;;
55641;SDS011;41509;53.108;6.100;2023-09-18T15:19:50;6.03;;;2.47;;
55641;SDS011;41509;53.108;6.100;2023-09-18T15:22:21;8.07;;;2.70;;
55641;SDS011;41509;53.108;6.100;2023-09-18T15:24:49;6.00;;;2.40;;
55641;SDS011;41509;53.108;6.100;2023-09-18T15:27:15;4.22;;;2.20;;
55641;SDS011;41509;53.108;6.100;2023-09-18T15:29:44;6.80;;;2.10;;
55641;SDS011;41509;53.108;6.100;2023-09-18T15:34:35;3.53;;;2.42;;
55641;SDS011;41509;53.108;6.100;2023-09-18T15:39:29;2.58;;;1.98;;
55641;SDS011;41509;53.108;6.100;2023-09-18T15:41:55;3.08;;;1.92;;
55641;SDS011;41509;53.108;6.100;2023-09-18T15:46:47;5.53;;;2.17;;
55641;SDS011;41509;53.108;6.100;2023-09-18T15:51:38;6.15;;;2.80;;
55641;SDS011;41509;53.108;6.100;2023-09-18T15:56:30;3.30;;;1.98;;
55641;SDS011;41509;53.108;6.100;2023-09-18T16:01:25;7.30;;;2.60;;
55641;SDS011;41509;53.108;6.100;2023-09-18T16:03:53;7.57;;;2.65;;
55641;SDS011;41509;53.108;6.100;2023-09-18T16:06:22;6.90;;;2.95;;
55641;SDS011;41509;53.108;6.100;2023-09-18T16:11:18;4.68;;;3.30;;
55641;SDS011;41509;53.108;6.100;2023-09-18T16:16:09;6.82;;;2.63;;
55641;SDS011;41509;53.108;6.100;2023-09-18T16:21:01;4.60;;;2.80;;
55641;SDS011;41509;53.108;6.100;2023-09-18T16:23:27;9.10;;;2.88;;
55641;SDS011;41509;53.108;6.100;2023-09-18T16:28:22;4.03;;;2.20;;
55641;SDS011;41509;53.108;6.100;2023-09-18T16:33:13;5.03;;;2.20;;